Mckinley Sea — WDE5024 — position and weather

sailwx.info

Track history (hours):
 
Tides and Currents Weather Stations Pressure Air Temp Water Temp Dewpoint Dewpoint Depression Visibility Wind Speed Wind Dir Waves Ship Positions

Mckinley Sea

Owner: Kirby Offshore Marine, LLC, Staten Island, NY. More information available from US FCC via Universal Licensing System and Coast Guard Vessel Documentation Center.

Last reported at 2017-Feb-24 21:28 UTC. Time now 2017-Feb-24 21:41 UTC.
Position N 40°35' W 074°01'.

Length 41 m; draft 6 m.

Type: . MMSI: 367360980.

Date/timePositionNaut miles runAvg speedWind from/ knotsBaromVisibWave heightAir tempDewpointWater temp
2017-Feb-24 21:28N 40°35' W 074°01'0 0.1
2017-Feb-24 20:31N 40°35' W 074°01'0 0.2
2017-Feb-24 19:31N 40°35' W 074°01'0 0.0
2017-Feb-24 18:31N 40°35' W 074°01'0 0.0
2017-Feb-24 17:31N 40°35' W 074°01'0 0.0
2017-Feb-24 16:30N 40°35' W 074°01'0 0.0
2017-Feb-24 15:33N 40°35' W 074°01'0 0.1
2017-Feb-24 14:30N 40°35' W 074°01'0 0.0
2017-Feb-24 13:33N 40°35' W 074°01'0 0.2
2017-Feb-24 12:30N 40°35' W 074°01'0 0.0
2017-Feb-24 11:33N 40°35' W 074°01'0 0.1
2017-Feb-24 10:33N 40°35' W 074°01'0 0.1
2017-Feb-24 09:30N 40°35' W 074°01'0 0.0
2017-Feb-24 08:33N 40°35' W 074°01'0 0.1
2017-Feb-24 07:30N 40°35' W 074°01'0 0.0
2017-Feb-24 06:33N 40°35' W 074°01'0 0.0
2017-Feb-24 05:33N 40°35' W 074°01'0 0.0
2017-Feb-24 04:33N 40°35' W 074°01'0 0.0
2017-Feb-24 03:33N 40°35' W 074°01'0 0.1
2017-Feb-24 02:33N 40°35' W 074°01'0 0.1
2017-Feb-24 01:30N 40°35' W 074°01'0 0.1
2017-Feb-24 00:33N 40°35' W 074°01'0 0.1
2017-Feb-23 23:21N 40°35' W 074°01'0 0.1
2017-Feb-23 22:30N 40°35' W 074°01'0 0.1
2017-Feb-23 21:33N 40°35' W 074°01'0 0.0
2017-Feb-23 20:33N 40°35' W 074°01'0 0.2
2017-Feb-23 19:33N 40°35' W 074°01'3 1.5
2017-Feb-23 17:33N 40°38' W 074°03'2 2.2
2017-Feb-23 16:33N 40°40' W 074°04'4 4.3
2017-Feb-23 15:31N 40°38' W 074°10'0 0.0
2017-Feb-23 14:31N 40°38' W 074°10'0 0.0
2017-Feb-23 13:31N 40°38' W 074°10'4 3.7
2017-Feb-23 12:34N 40°39' W 074°05'1 0.9
2017-Feb-23 11:31N 40°40' W 074°04'0 0.0
2017-Feb-23 10:31N 40°40' W 074°04'0 0.0
2017-Feb-23 09:31N 40°40' W 074°04'0 0.0
2017-Feb-23 08:31N 40°40' W 074°04'0 0.0
2017-Feb-23 07:31N 40°40' W 074°04'0 0.0
2017-Feb-23 06:31N 40°40' W 074°04'0 0.0
2017-Feb-23 05:31N 40°40' W 074°04'0 0.0
2017-Feb-23 04:31N 40°40' W 074°04'0 0.0
2017-Feb-23 03:31N 40°40' W 074°04'0 0.0
2017-Feb-23 02:31N 40°40' W 074°04'0 0.0
2017-Feb-23 01:31N 40°40' W 074°04'0 0.0
2017-Feb-23 00:31N 40°40' W 074°04'0 0.0
2017-Feb-22 23:33N 40°40' W 074°04'0 0.0
2017-Feb-22 22:33N 40°40' W 074°04'5 4.7
2017-Feb-22 21:33N 40°35' W 074°01'0 0.1
2017-Feb-22 20:28N 40°36' W 074°01'0 0.2
2017-Feb-22 19:31N 40°35' W 074°01'0 0.0
2017-Feb-22 18:31N 40°35' W 074°01'0 0.0
2017-Feb-22 17:31N 40°35' W 074°01'0 0.0
2017-Feb-22 16:31N 40°35' W 074°01'0 0.0
2017-Feb-22 15:31N 40°35' W 074°01'0 0.0
2017-Feb-22 14:31N 40°35' W 074°01'0 0.0
2017-Feb-22 13:31N 40°35' W 074°01'0 0.0
2017-Feb-22 12:31N 40°35' W 074°01'0 0.2
2017-Feb-22 11:31N 40°36' W 074°01'0 0.1
2017-Feb-22 10:31N 40°36' W 074°01'0 0.0
2017-Feb-22 09:31N 40°36' W 074°01'0 0.0
2017-Feb-22 08:31N 40°36' W 074°01'0 0.0
2017-Feb-22 07:31N 40°36' W 074°01'0 0.1
2017-Feb-22 06:28N 40°36' W 074°01'3 3.1
2017-Feb-22 05:33N 40°38' W 074°03'10 9.9
2017-Feb-22 04:33N 40°47' W 073°59'10 9.8
2017-Feb-22 03:33N 40°57' W 073°54'1 0.0
2017-Feb-20 08:33N 40°58' W 073°54'9 9.1
2017-Feb-20 07:33N 40°49' W 073°58'9 8.7
2017-Feb-20 06:33N 40°41' W 074°02'7 6.6
2017-Feb-20 05:33N 40°39' W 074°10'6 5.9
2017-Feb-20 04:33N 40°33' W 074°14'0 0.3
2017-Feb-20 03:33N 40°33' W 074°14'0 0.0
2017-Feb-20 02:30N 40°33' W 074°14'0 0.1
2017-Feb-20 01:27N 40°33' W 074°14'0 0.0
2017-Feb-20 00:33N 40°33' W 074°14'0 0.0
2017-Feb-19 22:13N 40°33' W 074°14'0 0.0
2017-Feb-19 09:22N 40°33' W 074°14'0 0.0
2017-Feb-19 07:22N 40°33' W 074°14'0 0.0
2017-Feb-19 06:28N 40°33' W 074°14'0 0.0
2017-Feb-19 05:33N 40°33' W 074°14'2 1.8
2017-Feb-19 04:30N 40°35' W 074°13'4 4.5
2017-Feb-19 03:33N 40°39' W 074°10'0 0.0
2017-Feb-19 02:31N 40°39' W 074°10'0 0.0
2017-Feb-19 01:28N 40°39' W 074°10'0 0.0
2017-Feb-19 00:31N 40°39' W 074°10'0 0.0
2017-Feb-18 23:28N 40°39' W 074°10'0 0.0
2017-Feb-18 22:28N 40°39' W 074°10'0 0.0
2017-Feb-18 21:22N 40°39' W 074°10'0 0.0
2017-Feb-18 20:31N 40°39' W 074°10'0 0.0
2017-Feb-18 19:33N 40°39' W 074°10'0 0.2
2017-Feb-18 18:34N 40°38' W 074°10'5 5.0
2017-Feb-18 17:34N 40°39' W 074°03'1 0.9
2017-Feb-18 16:33N 40°40' W 074°02'0 0.0
2017-Feb-18 15:33N 40°40' W 074°02'0 0.2
2017-Feb-18 14:33N 40°40' W 074°02'0 0.0
2017-Feb-18 13:33N 40°40' W 074°02'0 0.0
2017-Feb-18 12:33N 40°40' W 074°02'0 0.0
2017-Feb-18 11:33N 40°40' W 074°02'0 0.0
2017-Feb-18 10:33N 40°40' W 074°02'5 4.9
2017-Feb-18 09:34N 40°39' W 074°08'1 1.1
2017-Feb-18 08:31N 40°39' W 074°10'0 0.0
2017-Feb-18 07:31N 40°39' W 074°10'0 0.0
2017-Feb-18 06:31N 40°39' W 074°10'0 0.0
2017-Feb-18 05:31N 40°39' W 074°10'6 6.3
2017-Feb-18 04:33N 40°40' W 074°02'0 0.1
2017-Feb-18 03:31N 40°40' W 074°02'0 0.0
2017-Feb-18 02:31N 40°40' W 074°02'0 0.0
2017-Feb-18 01:31N 40°40' W 074°02'0 0.0
2017-Feb-18 00:31N 40°40' W 074°02'0 0.0
2017-Feb-17 23:31N 40°40' W 074°02'0 0.0
2017-Feb-17 22:31N 40°40' W 074°02'0 0.0
2017-Feb-17 21:31N 40°40' W 074°02'0 0.0
2017-Feb-17 20:31N 40°40' W 074°02'0 0.1
2017-Feb-17 19:31N 40°40' W 074°02'0 0.0
2017-Feb-17 18:31N 40°40' W 074°02'0 0.0
2017-Feb-17 17:31N 40°40' W 074°02'0 0.0
2017-Feb-17 16:31N 40°40' W 074°02'0 0.0
2017-Feb-17 15:31N 40°40' W 074°02'0 0.0
2017-Feb-17 14:33N 40°40' W 074°02'0 0.0
2017-Feb-17 13:33N 40°40' W 074°02'3 3.3
2017-Feb-17 12:33N 40°36' W 074°02'7 6.6
2017-Feb-17 11:33N 40°31' W 073°58'7 7.0
2017-Feb-17 10:33N 40°29' W 073°49'178 6.8
2017-Feb-16 08:19N 42°17' W 070°40'6 8.4
2017-Feb-16 07:33N 42°22' W 070°46'7 7.3
2017-Feb-16 06:33N 42°21' W 070°56'5 5.5
2017-Feb-16 05:33N 42°23' W 071°03'0 0.4
2017-Feb-16 04:33N 42°23' W 071°03'0 0.0
2017-Feb-16 03:33N 42°23' W 071°03'0 0.0
2017-Feb-16 02:24N 42°23' W 071°03'0 0.0
2017-Feb-16 01:09N 42°23' W 071°03'0 0.0
2017-Feb-16 00:33N 42°23' W 071°03'0 0.0
2017-Feb-15 23:33N 42°23' W 071°03'0 0.0
2017-Feb-15 22:30N 42°23' W 071°03'0 0.0
2017-Feb-15 21:34N 42°23' W 071°03'0 0.0
2017-Feb-15 20:34N 42°23' W 071°03'0 0.0
2017-Feb-15 19:34N 42°23' W 071°03'0 0.1
2017-Feb-15 18:30N 42°23' W 071°03'4 4.1
2017-Feb-15 17:33N 42°20' W 071°00'1 1.2
2017-Feb-15 16:34N 42°21' W 070°59'0 0.0
2017-Feb-15 15:32N 42°21' W 070°59'0 0.0
2017-Feb-15 14:32N 42°20' W 070°59'0 0.1
2017-Feb-15 13:32N 42°21' W 070°58'0 0.0
2017-Feb-15 12:32N 42°20' W 070°58'0 0.0
2017-Feb-15 11:32N 42°20' W 070°58'0 0.0
2017-Feb-15 10:32N 42°20' W 070°58'0 0.1
2017-Feb-15 09:32N 42°21' W 070°58'0 0.0
2017-Feb-15 08:29N 42°21' W 070°58'0 0.0
2017-Feb-15 07:32N 42°21' W 070°58'1 1.4
2017-Feb-15 06:34N 42°20' W 070°57'7 6.9
2017-Feb-15 05:33N 42°21' W 070°47'8 8.2
2017-Feb-15 04:33N 42°16' W 070°38'  
Track history (hours):
 
Tides and Currents Weather Stations Pressure Air Temp Water Temp Dewpoint Dewpoint Depression Visibility Wind Speed Wind Dir Waves Ship Positions

Mckinley Sea

Owner: Kirby Offshore Marine, LLC, Staten Island, NY. More information available from US FCC via Universal Licensing System and Coast Guard Vessel Documentation Center.

Last reported at 2017-Feb-24 21:28 UTC. Time now 2017-Feb-24 21:41 UTC.
Position N 40°35' W 074°01'.

Length 41 m; draft 6 m.

Type: . MMSI: 367360980.

Date/timePositionNaut miles runAvg speedWind from/ knotsBaromVisibWave heightAir tempDewpointWater temp
2017-Feb-24 21:28N 40°35' W 074°01'0 0.1
2017-Feb-24 20:31N 40°35' W 074°01'0 0.2
2017-Feb-24 19:31N 40°35' W 074°01'0 0.0
2017-Feb-24 18:31N 40°35' W 074°01'0 0.0
2017-Feb-24 17:31N 40°35' W 074°01'0 0.0
2017-Feb-24 16:30N 40°35' W 074°01'0 0.0
2017-Feb-24 15:33N 40°35' W 074°01'0 0.1
2017-Feb-24 14:30N 40°35' W 074°01'0 0.0
2017-Feb-24 13:33N 40°35' W 074°01'0 0.2
2017-Feb-24 12:30N 40°35' W 074°01'0 0.0
2017-Feb-24 11:33N 40°35' W 074°01'0 0.1
2017-Feb-24 10:33N 40°35' W 074°01'0 0.1
2017-Feb-24 09:30N 40°35' W 074°01'0 0.0
2017-Feb-24 08:33N 40°35' W 074°01'0 0.1
2017-Feb-24 07:30N 40°35' W 074°01'0 0.0
2017-Feb-24 06:33N 40°35' W 074°01'0 0.0
2017-Feb-24 05:33N 40°35' W 074°01'0 0.0
2017-Feb-24 04:33N 40°35' W 074°01'0 0.0
2017-Feb-24 03:33N 40°35' W 074°01'0 0.1
2017-Feb-24 02:33N 40°35' W 074°01'0 0.1
2017-Feb-24 01:30N 40°35' W 074°01'0 0.1
2017-Feb-24 00:33N 40°35' W 074°01'0 0.1
2017-Feb-23 23:21N 40°35' W 074°01'0 0.1
2017-Feb-23 22:30N 40°35' W 074°01'0 0.1
2017-Feb-23 21:33N 40°35' W 074°01'0 0.0
2017-Feb-23 20:33N 40°35' W 074°01'0 0.2
2017-Feb-23 19:33N 40°35' W 074°01'3 1.5
2017-Feb-23 17:33N 40°38' W 074°03'2 2.2
2017-Feb-23 16:33N 40°40' W 074°04'4 4.3
2017-Feb-23 15:31N 40°38' W 074°10'0 0.0
2017-Feb-23 14:31N 40°38' W 074°10'0 0.0
2017-Feb-23 13:31N 40°38' W 074°10'4 3.7
2017-Feb-23 12:34N 40°39' W 074°05'1 0.9
2017-Feb-23 11:31N 40°40' W 074°04'0 0.0
2017-Feb-23 10:31N 40°40' W 074°04'0 0.0
2017-Feb-23 09:31N 40°40' W 074°04'0 0.0
2017-Feb-23 08:31N 40°40' W 074°04'0 0.0
2017-Feb-23 07:31N 40°40' W 074°04'0 0.0
2017-Feb-23 06:31N 40°40' W 074°04'0 0.0
2017-Feb-23 05:31N 40°40' W 074°04'0 0.0
2017-Feb-23 04:31N 40°40' W 074°04'0 0.0
2017-Feb-23 03:31N 40°40' W 074°04'0 0.0
2017-Feb-23 02:31N 40°40' W 074°04'0 0.0
2017-Feb-23 01:31N 40°40' W 074°04'0 0.0
2017-Feb-23 00:31N 40°40' W 074°04'0 0.0
2017-Feb-22 23:33N 40°40' W 074°04'0 0.0
2017-Feb-22 22:33N 40°40' W 074°04'5 4.7
2017-Feb-22 21:33N 40°35' W 074°01'0 0.1
2017-Feb-22 20:28N 40°36' W 074°01'0 0.2
2017-Feb-22 19:31N 40°35' W 074°01'0 0.0
2017-Feb-22 18:31N 40°35' W 074°01'0 0.0
2017-Feb-22 17:31N 40°35' W 074°01'0 0.0
2017-Feb-22 16:31N 40°35' W 074°01'0 0.0
2017-Feb-22 15:31N 40°35' W 074°01'0 0.0
2017-Feb-22 14:31N 40°35' W 074°01'0 0.0
2017-Feb-22 13:31N 40°35' W 074°01'0 0.0
2017-Feb-22 12:31N 40°35' W 074°01'0 0.2
2017-Feb-22 11:31N 40°36' W 074°01'0 0.1
2017-Feb-22 10:31N 40°36' W 074°01'0 0.0
2017-Feb-22 09:31N 40°36' W 074°01'0 0.0
2017-Feb-22 08:31N 40°36' W 074°01'0 0.0
2017-Feb-22 07:31N 40°36' W 074°01'0 0.1
2017-Feb-22 06:28N 40°36' W 074°01'3 3.1
2017-Feb-22 05:33N 40°38' W 074°03'10 9.9
2017-Feb-22 04:33N 40°47' W 073°59'10 9.8
2017-Feb-22 03:33N 40°57' W 073°54'1 0.0
2017-Feb-20 08:33N 40°58' W 073°54'9 9.1
2017-Feb-20 07:33N 40°49' W 073°58'9 8.7
2017-Feb-20 06:33N 40°41' W 074°02'7 6.6
2017-Feb-20 05:33N 40°39' W 074°10'6 5.9
2017-Feb-20 04:33N 40°33' W 074°14'0 0.3
2017-Feb-20 03:33N 40°33' W 074°14'0 0.0
2017-Feb-20 02:30N 40°33' W 074°14'0 0.1
2017-Feb-20 01:27N 40°33' W 074°14'0 0.0
2017-Feb-20 00:33N 40°33' W 074°14'0 0.0
2017-Feb-19 22:13N 40°33' W 074°14'0 0.0
2017-Feb-19 09:22N 40°33' W 074°14'0 0.0
2017-Feb-19 07:22N 40°33' W 074°14'0 0.0
2017-Feb-19 06:28N 40°33' W 074°14'0 0.0
2017-Feb-19 05:33N 40°33' W 074°14'2 1.8
2017-Feb-19 04:30N 40°35' W 074°13'4 4.5
2017-Feb-19 03:33N 40°39' W 074°10'0 0.0
2017-Feb-19 02:31N 40°39' W 074°10'0 0.0
2017-Feb-19 01:28N 40°39' W 074°10'0 0.0
2017-Feb-19 00:31N 40°39' W 074°10'0 0.0
2017-Feb-18 23:28N 40°39' W 074°10'0 0.0
2017-Feb-18 22:28N 40°39' W 074°10'0 0.0
2017-Feb-18 21:22N 40°39' W 074°10'0 0.0
2017-Feb-18 20:31N 40°39' W 074°10'0 0.0
2017-Feb-18 19:33N 40°39' W 074°10'0 0.2
2017-Feb-18 18:34N 40°38' W 074°10'5 5.0
2017-Feb-18 17:34N 40°39' W 074°03'1 0.9
2017-Feb-18 16:33N 40°40' W 074°02'0 0.0
2017-Feb-18 15:33N 40°40' W 074°02'0 0.2
2017-Feb-18 14:33N 40°40' W 074°02'0 0.0
2017-Feb-18 13:33N 40°40' W 074°02'0 0.0
2017-Feb-18 12:33N 40°40' W 074°02'0 0.0
2017-Feb-18 11:33N 40°40' W 074°02'0 0.0
2017-Feb-18 10:33N 40°40' W 074°02'5 4.9
2017-Feb-18 09:34N 40°39' W 074°08'1 1.1
2017-Feb-18 08:31N 40°39' W 074°10'0 0.0
2017-Feb-18 07:31N 40°39' W 074°10'0 0.0
2017-Feb-18 06:31N 40°39' W 074°10'0 0.0
2017-Feb-18 05:31N 40°39' W 074°10'6 6.3
2017-Feb-18 04:33N 40°40' W 074°02'0 0.1
2017-Feb-18 03:31N 40°40' W 074°02'0 0.0
2017-Feb-18 02:31N 40°40' W 074°02'0 0.0
2017-Feb-18 01:31N 40°40' W 074°02'0 0.0
2017-Feb-18 00:31N 40°40' W 074°02'0 0.0
2017-Feb-17 23:31N 40°40' W 074°02'0 0.0
2017-Feb-17 22:31N 40°40' W 074°02'0 0.0
2017-Feb-17 21:31N 40°40' W 074°02'0 0.0
2017-Feb-17 20:31N 40°40' W 074°02'0 0.1
2017-Feb-17 19:31N 40°40' W 074°02'0 0.0
2017-Feb-17 18:31N 40°40' W 074°02'0 0.0
2017-Feb-17 17:31N 40°40' W 074°02'0 0.0
2017-Feb-17 16:31N 40°40' W 074°02'0 0.0
2017-Feb-17 15:31N 40°40' W 074°02'0 0.0
2017-Feb-17 14:33N 40°40' W 074°02'0 0.0
2017-Feb-17 13:33N 40°40' W 074°02'3 3.3
2017-Feb-17 12:33N 40°36' W 074°02'7 6.6
2017-Feb-17 11:33N 40°31' W 073°58'7 7.0
2017-Feb-17 10:33N 40°29' W 073°49'178 6.8
2017-Feb-16 08:19N 42°17' W 070°40'6 8.4
2017-Feb-16 07:33N 42°22' W 070°46'7 7.3
2017-Feb-16 06:33N 42°21' W 070°56'5 5.5
2017-Feb-16 05:33N 42°23' W 071°03'0 0.4
2017-Feb-16 04:33N 42°23' W 071°03'0 0.0
2017-Feb-16 03:33N 42°23' W 071°03'0 0.0
2017-Feb-16 02:24N 42°23' W 071°03'0 0.0
2017-Feb-16 01:09N 42°23' W 071°03'0 0.0
2017-Feb-16 00:33N 42°23' W 071°03'0 0.0
2017-Feb-15 23:33N 42°23' W 071°03'0 0.0
2017-Feb-15 22:30N 42°23' W 071°03'0 0.0
2017-Feb-15 21:34N 42°23' W 071°03'0 0.0
2017-Feb-15 20:34N 42°23' W 071°03'0 0.0
2017-Feb-15 19:34N 42°23' W 071°03'0 0.1
2017-Feb-15 18:30N 42°23' W 071°03'4 4.1
2017-Feb-15 17:33N 42°20' W 071°00'1 1.2
2017-Feb-15 16:34N 42°21' W 070°59'0 0.0
2017-Feb-15 15:32N 42°21' W 070°59'0 0.0
2017-Feb-15 14:32N 42°20' W 070°59'0 0.1
2017-Feb-15 13:32N 42°21' W 070°58'0 0.0
2017-Feb-15 12:32N 42°20' W 070°58'0 0.0
2017-Feb-15 11:32N 42°20' W 070°58'0 0.0
2017-Feb-15 10:32N 42°20' W 070°58'0 0.1
2017-Feb-15 09:32N 42°21' W 070°58'0 0.0
2017-Feb-15 08:29N 42°21' W 070°58'0 0.0
2017-Feb-15 07:32N 42°21' W 070°58'1 1.4
2017-Feb-15 06:34N 42°20' W 070°57'7 6.9
2017-Feb-15 05:33N 42°21' W 070°47'8 8.2
2017-Feb-15 04:33N 42°16' W 070°38'  

Dump ship's entire track history